createdAt,value
2022-10-10T00:01:36.960Z,3.72
2022-10-10T00:04:06.166Z,6.20
2022-10-10T00:06:36.664Z,3.53
2022-10-10T00:09:06.572Z,4.32
2022-10-10T00:11:34.681Z,3.53
2022-10-10T00:14:03.147Z,4.22
2022-10-10T00:16:32.803Z,4.35
2022-10-10T00:19:01.048Z,5.32
2022-10-10T00:21:31.746Z,2.70
2022-10-10T00:24:00.707Z,3.45
2022-10-10T00:26:29.256Z,4.25
2022-10-10T00:28:57.469Z,5.68
2022-10-10T00:31:25.589Z,3.63
2022-10-10T00:33:55.164Z,4.25
2022-10-10T00:36:23.555Z,2.50
2022-10-10T00:38:51.584Z,4.65
2022-10-10T00:41:19.867Z,8.40
2022-10-10T00:44:08.596Z,4.45
2022-10-10T00:46:37.337Z,4.28
2022-10-10T00:49:11.244Z,4.32
2022-10-10T00:51:39.664Z,3.38
2022-10-10T00:54:10.511Z,2.58
2022-10-10T00:56:45.000Z,3.97
2022-10-10T00:59:13.233Z,3.80
2022-10-10T01:01:43.985Z,4.85
2022-10-10T01:04:36.010Z,3.25
2022-10-10T01:07:06.935Z,4.03
2022-10-10T01:09:36.351Z,4.15
2022-10-10T01:12:16.733Z,4.30
2022-10-10T01:14:51.712Z,6.65
2022-10-10T01:17:26.580Z,3.33
2022-10-10T01:20:27.507Z,3.35
2022-10-10T01:23:21.246Z,5.18
2022-10-10T01:26:00.412Z,5.35
2022-10-10T01:28:39.576Z,3.92
2022-10-10T01:31:10.128Z,3.17
2022-10-10T01:33:50.650Z,4.18
2022-10-10T01:36:23.385Z,5.25
2022-10-10T01:38:56.343Z,4.82
2022-10-10T01:41:32.073Z,3.40
2022-10-10T01:44:01.488Z,3.08
2022-10-10T01:46:29.586Z,2.72
2022-10-10T01:48:59.311Z,3.28
2022-10-10T01:51:45.476Z,3.90
2022-10-10T01:54:29.294Z,5.78
2022-10-10T01:57:05.650Z,4.53
2022-10-10T01:59:47.864Z,3.65
2022-10-10T02:02:23.785Z,3.75
2022-10-10T02:04:59.679Z,4.32
2022-10-10T02:07:33.355Z,2.42
2022-10-10T02:10:04.081Z,3.00
2022-10-10T02:12:33.239Z,3.88
2022-10-10T02:15:08.611Z,4.32
2022-10-10T02:17:39.374Z,4.45
2022-10-10T02:20:11.963Z,5.43
2022-10-10T02:22:41.741Z,5.38
2022-10-10T02:25:10.520Z,4.03
2022-10-10T02:27:44.581Z,5.72
2022-10-10T02:30:15.502Z,3.25
2022-10-10T02:32:46.524Z,6.80
2022-10-10T02:35:20.383Z,5.10
2022-10-10T02:37:49.561Z,2.45
2022-10-10T02:40:23.976Z,4.85
2022-10-10T02:42:54.108Z,4.32
2022-10-10T02:45:24.359Z,3.33
2022-10-10T02:47:52.975Z,3.05
2022-10-10T02:50:24.487Z,3.03
2022-10-10T02:52:52.833Z,3.38
2022-10-10T02:55:21.213Z,3.38
2022-10-10T02:57:49.281Z,5.72
2022-10-10T03:00:17.884Z,5.78
2022-10-10T03:02:47.451Z,4.63
2022-10-10T03:05:15.643Z,4.65
2022-10-10T03:07:43.646Z,4.57
2022-10-10T03:10:11.689Z,6.28
2022-10-10T03:12:39.712Z,6.53
2022-10-10T03:15:11.647Z,4.55
2022-10-10T03:17:40.379Z,4.45
2022-10-10T03:20:12.639Z,5.78
2022-10-10T03:22:40.676Z,6.00
2022-10-10T03:25:09.046Z,3.45
2022-10-10T03:27:37.058Z,3.80
2022-10-10T03:30:08.464Z,5.50
2022-10-10T03:32:36.449Z,5.22
2022-10-10T03:35:04.843Z,3.20
2022-10-10T03:37:34.230Z,4.45
2022-10-10T03:40:02.276Z,4.18
2022-10-10T03:42:30.336Z,6.20
2022-10-10T03:44:58.422Z,3.42
2022-10-10T03:47:26.463Z,2.97
2022-10-10T03:49:54.489Z,4.68
2022-10-10T03:52:22.905Z,7.78
2022-10-10T03:54:52.358Z,4.32
2022-10-10T03:57:20.413Z,8.75
2022-10-10T03:59:48.536Z,6.68
2022-10-10T04:02:16.711Z,4.35
2022-10-10T04:04:44.736Z,4.22
2022-10-10T04:07:14.850Z,3.80
2022-10-10T04:09:42.892Z,5.78
2022-10-10T04:12:12.237Z,7.07
2022-10-10T04:14:40.333Z,6.35
2022-10-10T04:17:11.441Z,5.65
2022-10-10T04:19:39.480Z,3.53
2022-10-10T04:22:10.997Z,2.70
2022-10-10T04:24:39.442Z,3.38
2022-10-10T04:27:12.633Z,5.90
2022-10-10T04:29:40.971Z,4.80
2022-10-10T04:32:09.002Z,3.97
2022-10-10T04:34:39.445Z,4.10
2022-10-10T04:37:07.749Z,2.97
2022-10-10T04:39:35.775Z,2.88
2022-10-10T04:42:03.776Z,3.13
2022-10-10T04:44:33.136Z,2.88
2022-10-10T04:47:01.754Z,4.00
2022-10-10T04:49:29.962Z,6.50
2022-10-10T04:51:57.975Z,5.38
2022-10-10T04:54:26.071Z,3.78
2022-10-10T04:56:54.115Z,5.30
2022-10-10T04:59:22.487Z,4.97
2022-10-10T05:01:51.915Z,8.40
2022-10-10T05:04:19.977Z,7.20
2022-10-10T05:06:48.081Z,5.57
2022-10-10T05:09:16.373Z,7.72
2022-10-10T05:11:46.464Z,5.53
2022-10-10T05:14:14.518Z,5.88
2022-10-10T05:16:42.569Z,6.40
2022-10-10T05:19:11.998Z,5.78
2022-10-10T05:21:40.151Z,4.70
2022-10-10T05:24:08.273Z,7.72
2022-10-10T05:26:39.766Z,5.10
2022-10-10T05:29:11.221Z,4.43
2022-10-10T05:31:41.603Z,3.45
2022-10-10T05:34:13.655Z,3.92
2022-10-10T05:36:41.750Z,4.30
2022-10-10T05:39:09.988Z,4.30
2022-10-10T05:41:38.162Z,3.03
2022-10-10T05:44:06.232Z,3.75
2022-10-10T05:46:34.194Z,7.65
2022-10-10T05:49:02.201Z,11.20
2022-10-10T05:51:31.583Z,5.63
2022-10-10T05:54:00.182Z,4.55
2022-10-10T05:56:28.224Z,4.55
2022-10-10T05:58:56.371Z,4.93
2022-10-10T06:01:24.445Z,4.60
2022-10-10T06:03:55.849Z,5.40
2022-10-10T06:06:24.427Z,4.32
2022-10-10T06:08:53.895Z,8.43
2022-10-10T06:11:25.092Z,6.13
2022-10-10T06:13:54.354Z,5.07
2022-10-10T06:16:22.967Z,6.22
2022-10-10T06:18:51.129Z,4.43
2022-10-10T06:21:19.464Z,6.43
2022-10-10T06:23:47.585Z,8.68
2022-10-10T06:26:17.060Z,4.40
2022-10-10T06:28:45.136Z,10.27
2022-10-10T06:31:14.436Z,3.58
2022-10-10T06:33:45.419Z,6.65
2022-10-10T06:36:15.193Z,4.35
2022-10-10T06:38:45.370Z,6.43
2022-10-10T06:41:14.455Z,9.45
2022-10-10T06:43:43.891Z,4.93
2022-10-10T06:46:11.946Z,4.28
2022-10-10T06:48:39.976Z,6.50
2022-10-10T06:51:09.847Z,7.13
2022-10-10T06:53:39.433Z,6.07
2022-10-10T06:56:07.533Z,7.22
2022-10-10T06:58:36.310Z,5.35
2022-10-10T07:01:06.310Z,7.07
2022-10-10T07:03:34.497Z,6.10
2022-10-10T07:06:03.806Z,12.57
2022-10-10T07:08:31.943Z,3.88
2022-10-10T07:11:00.108Z,6.97
2022-10-10T07:13:28.329Z,6.93
2022-10-10T07:15:56.410Z,6.60
2022-10-10T07:18:28.026Z,7.03
2022-10-10T07:20:58.090Z,7.13
2022-10-10T07:23:31.325Z,8.05
2022-10-10T07:26:03.639Z,6.03
2022-10-10T07:28:35.109Z,5.97
2022-10-10T07:31:05.681Z,5.60
2022-10-10T07:33:36.946Z,6.90
2022-10-10T07:36:05.633Z,8.10
2022-10-10T07:38:34.012Z,7.22
2022-10-10T07:41:02.643Z,4.88
2022-10-10T07:43:30.711Z,5.95
2022-10-10T07:48:32.189Z,5.47
2022-10-10T07:51:01.734Z,4.35
2022-10-10T07:53:29.763Z,5.00
2022-10-10T07:55:57.880Z,6.13
2022-10-10T07:58:26.049Z,5.68
2022-10-10T08:01:03.397Z,6.28
2022-10-10T08:03:31.614Z,6.35
2022-10-10T08:06:03.450Z,8.40
2022-10-10T08:08:34.230Z,4.80
2022-10-10T08:11:04.920Z,5.22
2022-10-10T08:13:33.064Z,5.00
2022-10-10T08:16:04.381Z,6.10
2022-10-10T08:18:32.455Z,7.03
2022-10-10T08:21:07.343Z,7.82
2022-10-10T08:23:36.233Z,8.25
2022-10-10T08:26:07.107Z,8.95
2022-10-10T08:28:35.974Z,6.65
2022-10-10T08:31:06.511Z,7.40
2022-10-10T08:33:34.919Z,6.13
2022-10-10T08:36:08.267Z,6.32
2022-10-10T08:38:38.689Z,7.97
2022-10-10T08:41:10.238Z,6.28
2022-10-10T08:43:42.874Z,7.30
2022-10-10T08:46:17.629Z,9.65
2022-10-10T08:48:50.502Z,6.18
2022-10-10T08:51:27.561Z,6.68
2022-10-10T08:56:31.315Z,7.28
2022-10-10T08:59:11.535Z,7.45
2022-10-10T09:02:18.212Z,5.20
2022-10-10T09:04:32.492Z,8.80
2022-10-10T09:07:16.029Z,6.80
2022-10-10T09:09:55.757Z,8.95
2022-10-10T09:15:04.823Z,7.60
2022-10-10T09:17:40.964Z,9.35
2022-10-10T09:20:21.464Z,6.72
2022-10-10T09:22:57.556Z,9.65
2022-10-10T09:25:30.710Z,7.90
2022-10-10T09:28:03.919Z,6.72
2022-10-10T09:30:36.542Z,7.57
2022-10-10T09:33:09.838Z,7.35
2022-10-10T09:35:42.339Z,6.00
2022-10-10T09:38:35.108Z,7.75
2022-10-10T09:41:09.668Z,6.30
2022-10-10T09:43:40.063Z,8.18
2022-10-10T09:46:09.664Z,10.18
2022-10-10T09:48:39.748Z,12.55
2022-10-10T09:51:13.021Z,7.95
2022-10-10T09:53:43.030Z,9.88
2022-10-10T09:56:17.110Z,8.27
2022-10-10T09:58:49.170Z,7.50
2022-10-10T10:01:19.831Z,9.20
2022-10-10T10:04:27.177Z,10.52
2022-10-10T10:07:06.894Z,8.50
2022-10-10T10:09:36.380Z,11.70
2022-10-10T10:12:07.274Z,8.35
2022-10-10T10:14:38.928Z,10.02
2022-10-10T10:17:09.377Z,9.27
2022-10-10T10:19:39.378Z,8.98
2022-10-10T10:22:31.345Z,10.60
2022-10-10T10:25:31.537Z,7.72
2022-10-10T10:28:21.610Z,7.50
2022-10-10T10:30:55.070Z,8.05
2022-10-10T10:33:38.655Z,8.63
2022-10-10T10:36:24.390Z,8.52
2022-10-10T10:38:59.046Z,7.13
2022-10-10T10:41:34.406Z,6.10
2022-10-10T10:44:14.807Z,8.73
2022-10-10T10:46:51.143Z,6.43
2022-10-10T10:49:35.582Z,5.75
2022-10-10T10:52:27.315Z,6.68
2022-10-10T10:55:08.455Z,6.30
2022-10-10T10:58:10.370Z,8.35
2022-10-10T11:01:24.015Z,6.28
2022-10-10T11:05:15.727Z,5.50
2022-10-10T11:07:17.282Z,6.00
2022-10-10T11:09:50.687Z,5.07
2022-10-10T11:12:34.828Z,5.43
2022-10-10T11:15:10.695Z,6.85
2022-10-10T11:17:44.177Z,5.15
2022-10-10T11:20:23.116Z,4.63
2022-10-10T11:22:56.108Z,7.00
2022-10-10T11:25:27.746Z,6.45
2022-10-10T11:28:01.905Z,5.07
2022-10-10T11:30:35.981Z,6.28
2022-10-10T11:33:11.771Z,5.63
2022-10-10T11:35:46.460Z,6.75
2022-10-10T11:38:21.668Z,4.80
2022-10-10T11:43:33.485Z,9.43
2022-10-10T11:46:12.585Z,6.68
2022-10-10T11:48:49.244Z,5.22
2022-10-10T11:51:36.960Z,6.32
2022-10-10T11:54:12.401Z,6.05
2022-10-10T11:56:44.711Z,8.57
2022-10-10T11:59:19.302Z,7.53
2022-10-10T12:01:53.693Z,5.15
2022-10-10T12:04:23.712Z,5.93
2022-10-10T12:06:55.109Z,7.00
2022-10-10T12:09:28.637Z,6.10
2022-10-10T12:11:59.854Z,6.85
2022-10-10T12:14:31.382Z,6.57
2022-10-10T12:17:01.394Z,6.88
2022-10-10T12:19:30.312Z,6.47
2022-10-10T12:22:05.115Z,5.63
2022-10-10T12:24:38.646Z,7.97
2022-10-10T12:27:28.166Z,7.20
2022-10-10T12:30:19.544Z,7.78
2022-10-10T12:32:54.146Z,7.50
2022-10-10T12:35:42.287Z,7.55
2022-10-10T12:38:20.451Z,6.50
2022-10-10T12:41:11.532Z,5.32
2022-10-10T12:43:43.190Z,6.90
2022-10-10T12:46:34.581Z,7.57
2022-10-10T12:49:23.205Z,8.40
2022-10-10T12:52:12.206Z,4.68
2022-10-10T12:54:43.754Z,5.43
2022-10-10T12:57:18.381Z,6.57
2022-10-10T12:59:47.052Z,8.27
2022-10-10T13:02:24.911Z,8.32
2022-10-10T13:04:58.495Z,6.95
2022-10-10T13:07:29.593Z,5.95
2022-10-10T13:10:07.999Z,9.52
2022-10-10T13:12:36.163Z,6.95
2022-10-10T13:15:06.368Z,9.00
2022-10-10T13:17:42.307Z,7.05
2022-10-10T13:20:29.153Z,7.82
2022-10-10T13:22:57.795Z,8.85
2022-10-10T13:25:25.919Z,6.57
2022-10-10T13:27:54.092Z,8.13
2022-10-10T13:30:24.638Z,8.80
2022-10-10T13:32:56.070Z,4.63
2022-10-10T13:35:28.568Z,5.88
2022-10-10T13:37:58.006Z,7.03
2022-10-10T13:40:27.531Z,10.13
2022-10-10T13:42:56.354Z,7.28
2022-10-10T13:45:38.546Z,5.95
2022-10-10T13:48:22.571Z,6.43
2022-10-10T13:51:06.196Z,9.60
2022-10-10T13:53:54.050Z,5.88
2022-10-10T13:56:28.768Z,8.98
2022-10-10T13:59:05.716Z,7.63
2022-10-10T14:01:37.777Z,7.78
2022-10-10T14:04:25.156Z,4.70
2022-10-10T14:07:02.607Z,8.75
2022-10-10T14:12:03.284Z,15.75
2022-10-10T14:14:35.966Z,10.05
2022-10-10T14:17:06.551Z,7.82
2022-10-10T14:19:34.868Z,8.55
2022-10-10T14:22:04.804Z,7.88
2022-10-10T14:24:32.855Z,7.15
2022-10-10T14:27:08.201Z,6.75
2022-10-10T14:29:36.319Z,8.10
2022-10-10T14:32:07.217Z,12.00
2022-10-10T14:34:35.421Z,7.22
2022-10-10T14:37:05.137Z,6.80
2022-10-10T14:39:33.612Z,12.50
2022-10-10T14:42:03.623Z,7.90
2022-10-10T14:44:31.857Z,9.52
2022-10-10T14:46:59.941Z,6.43
2022-10-10T14:49:28.030Z,7.28
2022-10-10T14:51:56.220Z,8.98
2022-10-10T14:54:25.719Z,10.35
2022-10-10T14:57:09.505Z,7.63
2022-10-10T14:59:46.169Z,6.63
2022-10-10T15:02:21.699Z,7.78
2022-10-10T15:04:50.563Z,7.10
2022-10-10T15:07:19.421Z,6.57
2022-10-10T15:10:30.857Z,4.97
2022-10-10T15:12:39.856Z,7.93
2022-10-10T15:15:09.992Z,5.85
2022-10-10T15:17:38.324Z,7.45
2022-10-10T15:20:10.985Z,5.72
2022-10-10T15:22:39.741Z,6.32
2022-10-10T15:25:10.376Z,5.75
2022-10-10T15:27:38.642Z,4.97
2022-10-10T15:30:07.874Z,5.90
2022-10-10T15:32:39.807Z,7.78
2022-10-10T15:35:08.708Z,5.20
2022-10-10T15:37:36.827Z,7.30
2022-10-10T15:40:05.816Z,7.68
2022-10-10T15:42:35.350Z,7.88
2022-10-10T15:45:03.738Z,5.88
2022-10-10T15:47:32.595Z,5.75
2022-10-10T15:50:01.026Z,7.10
2022-10-10T15:52:29.130Z,8.18
2022-10-10T15:54:57.786Z,7.38
2022-10-10T15:57:25.851Z,7.07
2022-10-10T15:59:57.625Z,5.43
2022-10-10T16:02:25.790Z,5.63
2022-10-10T16:04:56.207Z,9.10
2022-10-10T16:07:29.269Z,6.80
2022-10-10T16:10:01.098Z,8.05
2022-10-10T16:12:31.825Z,7.00
2022-10-10T16:15:06.055Z,6.90
2022-10-10T16:17:35.185Z,8.38
2022-10-10T16:20:03.782Z,6.80
2022-10-10T16:22:31.978Z,8.50
2022-10-10T16:27:48.800Z,8.43
2022-10-10T16:30:20.116Z,10.25
2022-10-10T16:32:48.973Z,7.18
2022-10-10T16:35:19.598Z,7.07
2022-10-10T16:37:48.983Z,8.82
2022-10-10T16:40:17.501Z,9.38
2022-10-10T16:42:45.845Z,10.20
2022-10-10T16:45:14.125Z,7.53
2022-10-10T16:47:43.613Z,8.18
2022-10-10T16:50:12.293Z,9.43
2022-10-10T16:52:40.495Z,7.50
2022-10-10T16:55:11.272Z,8.05
2022-10-10T16:57:40.121Z,10.23
2022-10-10T17:00:10.462Z,8.40
2022-10-10T17:02:42.166Z,10.07
2022-10-10T17:05:13.928Z,8.95
2022-10-10T17:07:44.381Z,10.48
2022-10-10T17:10:12.533Z,8.70
2022-10-10T17:12:40.790Z,9.25
2022-10-10T17:15:09.946Z,9.88
2022-10-10T17:17:38.129Z,13.18
2022-10-10T17:20:07.803Z,13.48
2022-10-10T17:22:37.563Z,9.75
2022-10-10T17:25:06.533Z,12.05
2022-10-10T17:27:35.939Z,12.35
2022-10-10T17:30:04.747Z,8.70
2022-10-10T17:32:33.247Z,8.77
2022-10-10T17:35:07.830Z,12.98
2022-10-10T17:37:49.765Z,12.15
2022-10-10T17:40:18.493Z,9.45
2022-10-10T17:42:49.406Z,10.52
2022-10-10T17:45:22.428Z,13.93
2022-10-10T17:47:50.506Z,9.95
2022-10-10T17:50:18.751Z,9.48
2022-10-10T17:52:49.667Z,12.07
2022-10-10T17:55:21.774Z,14.20
2022-10-10T17:57:49.854Z,12.38
2022-10-10T18:00:18.156Z,12.48
2022-10-10T18:02:46.229Z,11.27
2022-10-10T18:05:14.286Z,9.85
2022-10-10T18:07:43.564Z,12.02
2022-10-10T18:10:11.676Z,11.77
2022-10-10T18:12:41.121Z,12.15
2022-10-10T18:15:09.716Z,13.50
2022-10-10T18:17:37.893Z,12.57
2022-10-10T18:20:07.086Z,13.52
2022-10-10T18:22:35.196Z,13.02
2022-10-10T18:25:03.251Z,12.75
2022-10-10T18:27:31.323Z,14.10
2022-10-10T18:30:00.829Z,12.05
2022-10-10T18:32:29.154Z,16.80
2022-10-10T18:34:57.674Z,15.50
2022-10-10T18:37:25.763Z,14.52
2022-10-10T18:39:53.868Z,13.82
2022-10-10T18:42:22.215Z,20.63
2022-10-10T18:44:50.287Z,14.10
2022-10-10T18:47:22.475Z,14.23
2022-10-10T18:49:52.877Z,15.73
2022-10-10T18:52:21.039Z,16.48
2022-10-10T18:54:50.359Z,14.98
2022-10-10T18:57:18.542Z,16.50
2022-10-10T18:59:46.605Z,12.63
2022-10-10T19:02:14.746Z,13.48
2022-10-10T19:04:45.102Z,14.90
2022-10-10T19:07:13.140Z,10.93
2022-10-10T19:09:41.740Z,17.42
2022-10-10T19:12:09.855Z,12.43
2022-10-10T19:14:38.189Z,14.80
2022-10-10T19:17:06.373Z,19.58
2022-10-10T19:19:34.559Z,16.80
2022-10-10T19:22:04.454Z,18.25
2022-10-10T19:24:32.851Z,21.13
2022-10-10T19:27:01.133Z,15.98
2022-10-10T19:29:32.311Z,15.50
2022-10-10T19:32:00.432Z,14.55
2022-10-10T19:34:28.583Z,16.85
2022-10-10T19:36:56.805Z,17.77
2022-10-10T19:39:29.306Z,15.73
2022-10-10T19:41:57.629Z,15.02
2022-10-10T19:44:25.993Z,13.63
2022-10-10T19:46:55.329Z,18.95
2022-10-10T19:49:24.780Z,13.27
2022-10-10T19:51:54.680Z,15.50
2022-10-10T19:54:22.823Z,16.50
2022-10-10T19:56:52.333Z,12.20
2022-10-10T19:59:20.473Z,12.88
2022-10-10T20:01:50.159Z,13.18
2022-10-10T20:04:18.481Z,12.65
2022-10-10T20:06:46.668Z,15.98
2022-10-10T20:09:14.803Z,17.83
2022-10-10T20:11:42.897Z,15.07
2022-10-10T20:14:12.313Z,15.43
2022-10-10T20:16:40.310Z,12.88
2022-10-10T20:19:08.650Z,15.68
2022-10-10T20:21:36.829Z,13.25
2022-10-10T20:24:07.383Z,15.80
2022-10-10T20:26:36.430Z,15.95
2022-10-10T20:29:07.472Z,13.95
2022-10-10T20:31:38.459Z,21.02
2022-10-10T20:34:08.100Z,17.17
2022-10-10T20:36:39.100Z,14.85
2022-10-10T20:39:10.072Z,11.90
2022-10-10T20:41:39.434Z,13.45
2022-10-10T20:44:09.615Z,13.93
2022-10-10T20:46:40.788Z,18.52
2022-10-10T20:49:13.672Z,14.02
2022-10-10T20:51:48.422Z,18.55
2022-10-10T20:54:17.696Z,13.43
2022-10-10T20:56:46.048Z,17.33
2022-10-10T20:59:14.353Z,14.73
2022-10-10T21:01:46.445Z,13.93
2022-10-10T21:04:14.972Z,14.40
2022-10-10T21:06:43.883Z,15.50
2022-10-10T21:09:14.372Z,14.48
2022-10-10T21:11:44.131Z,13.63
2022-10-10T21:14:15.284Z,15.48
2022-10-10T21:16:43.565Z,18.35
2022-10-10T21:19:13.662Z,11.13
2022-10-10T21:21:41.757Z,14.35
2022-10-10T21:24:12.182Z,16.50
2022-10-10T21:26:41.359Z,16.05
2022-10-10T21:29:10.038Z,14.18
2022-10-10T21:31:40.383Z,20.58
2022-10-10T21:34:11.407Z,20.00
2022-10-10T21:36:41.174Z,15.25
2022-10-10T21:39:09.596Z,18.67
2022-10-10T21:41:38.297Z,15.80
2022-10-10T21:44:07.124Z,23.75
2022-10-10T21:46:37.155Z,16.52
2022-10-10T21:49:08.254Z,20.45
2022-10-10T21:51:38.399Z,12.68
2022-10-10T21:54:08.822Z,15.25
2022-10-10T21:56:37.189Z,14.20
2022-10-10T21:59:06.182Z,15.73
2022-10-10T22:01:34.633Z,16.35
2022-10-10T22:04:05.672Z,14.60
2022-10-10T22:06:36.078Z,16.15
2022-10-10T22:09:04.853Z,20.80
2022-10-10T22:11:35.353Z,25.38
2022-10-10T22:14:03.868Z,23.30
2022-10-10T22:16:35.070Z,12.18
2022-10-10T22:19:04.271Z,13.90
2022-10-10T22:21:34.743Z,14.25
2022-10-10T22:24:05.461Z,15.07
2022-10-10T22:26:35.281Z,19.38
2022-10-10T22:29:03.506Z,11.40
2022-10-10T22:31:31.613Z,14.60
2022-10-10T22:33:59.725Z,18.48
2022-10-10T22:36:27.996Z,12.52
2022-10-10T22:38:56.067Z,14.15
2022-10-10T22:41:24.192Z,9.80
2022-10-10T22:43:53.764Z,12.05
2022-10-10T22:46:21.986Z,11.98
2022-10-10T22:48:50.072Z,11.65
2022-10-10T22:51:19.132Z,13.02
2022-10-10T22:53:50.720Z,11.80
2022-10-10T22:56:21.013Z,10.77
2022-10-10T22:58:50.196Z,11.15
2022-10-10T23:01:23.871Z,9.73
2022-10-10T23:03:55.321Z,14.23
2022-10-10T23:06:23.529Z,12.60
2022-10-10T23:08:51.725Z,11.43
2022-10-10T23:11:19.836Z,9.73
2022-10-10T23:13:47.886Z,9.02
2022-10-10T23:16:18.298Z,9.90
2022-10-10T23:18:47.958Z,10.93
2022-10-10T23:21:16.697Z,11.25
2022-10-10T23:23:44.729Z,14.65
2022-10-10T23:26:13.179Z,12.60
2022-10-10T23:28:41.390Z,9.45
2022-10-10T23:31:10.633Z,11.20
2022-10-10T23:33:39.252Z,16.38
2022-10-10T23:36:12.197Z,9.15
2022-10-10T23:38:41.199Z,9.75
2022-10-10T23:41:10.055Z,7.60
2022-10-10T23:43:38.297Z,9.30
2022-10-10T23:46:07.273Z,10.00
2022-10-10T23:48:36.821Z,12.00
2022-10-10T23:51:05.099Z,9.50
2022-10-10T23:53:34.710Z,12.00
2022-10-10T23:56:03.234Z,10.00
2022-10-10T23:58:32.097Z,9.98
